createdAt,value
2018-05-24T00:00:01.866Z,18.51
2018-05-24T00:00:33.083Z,18.51
2018-05-24T00:01:04.296Z,18.51
2018-05-24T00:01:35.567Z,18.52
2018-05-24T00:02:06.776Z,18.50
2018-05-24T00:02:37.992Z,18.48
2018-05-24T00:03:09.257Z,18.44
2018-05-24T00:03:40.481Z,18.45
2018-05-24T00:04:11.693Z,18.44
2018-05-24T00:04:42.900Z,18.41
2018-05-24T00:05:14.137Z,18.41
2018-05-24T00:05:45.361Z,18.42
2018-05-24T00:06:16.622Z,18.45
2018-05-24T00:06:47.883Z,18.45
2018-05-24T00:07:19.102Z,18.49
2018-05-24T00:07:50.343Z,18.49
2018-05-24T00:08:21.571Z,18.47
2018-05-24T00:08:52.780Z,18.45
2018-05-24T00:09:23.993Z,18.42
2018-05-24T00:09:55.211Z,18.42
2018-05-24T00:10:26.464Z,18.39
2018-05-24T00:10:57.673Z,18.38
2018-05-24T00:11:28.891Z,18.37
2018-05-24T00:12:00.105Z,18.37
2018-05-24T00:12:31.341Z,18.37
2018-05-24T00:13:02.548Z,18.39
2018-05-24T00:13:33.739Z,18.40
2018-05-24T00:14:04.957Z,18.40
2018-05-24T00:14:36.308Z,18.40
2018-05-24T00:15:08.441Z,18.41
2018-05-24T00:15:39.648Z,18.46
2018-05-24T00:16:10.861Z,18.51
2018-05-24T00:16:42.073Z,18.53
2018-05-24T00:17:13.316Z,18.56
2018-05-24T00:17:44.544Z,18.58
2018-05-24T00:18:15.770Z,18.62
2018-05-24T00:18:46.993Z,18.63
2018-05-24T00:19:18.206Z,18.66
2018-05-24T00:19:49.485Z,18.68
2018-05-24T00:20:20.714Z,18.70
2018-05-24T00:20:51.970Z,18.71
2018-05-24T00:21:23.185Z,18.74
2018-05-24T00:21:54.396Z,18.77
2018-05-24T00:22:25.620Z,18.81
2018-05-24T00:22:56.847Z,18.81
2018-05-24T00:23:28.109Z,18.82
2018-05-24T00:23:59.324Z,18.82
2018-05-24T00:24:30.529Z,18.79
2018-05-24T00:25:01.746Z,18.80
2018-05-24T00:25:32.958Z,18.80
2018-05-24T00:26:04.169Z,18.81
2018-05-24T00:26:35.390Z,18.81
2018-05-24T00:27:06.608Z,18.80
2018-05-24T00:27:37.885Z,18.78
2018-05-24T00:28:09.096Z,18.77
2018-05-24T00:28:40.308Z,18.77
2018-05-24T00:29:11.527Z,18.77
2018-05-24T00:29:42.754Z,18.75
2018-05-24T00:30:13.984Z,18.71
2018-05-24T00:30:45.192Z,18.72
2018-05-24T00:31:16.387Z,18.70
2018-05-24T00:31:47.596Z,18.70
2018-05-24T00:32:18.815Z,18.71
2018-05-24T00:32:50.096Z,18.68
2018-05-24T00:33:21.317Z,18.65
2018-05-24T00:33:52.532Z,18.65
2018-05-24T00:34:23.760Z,18.66
2018-05-24T00:34:54.996Z,18.68
2018-05-24T00:35:26.245Z,18.68
2018-05-24T00:35:57.473Z,18.70
2018-05-24T00:36:28.689Z,18.71
2018-05-24T00:36:59.881Z,18.72
2018-05-24T00:37:31.102Z,18.72
2018-05-24T00:38:02.412Z,18.71
2018-05-24T00:38:33.631Z,18.71
2018-05-24T00:39:04.849Z,18.73
2018-05-24T00:39:36.065Z,18.72
2018-05-24T00:40:07.311Z,18.69
2018-05-24T00:40:38.558Z,18.66
2018-05-24T00:41:09.787Z,18.62
2018-05-24T00:41:41.000Z,18.61
2018-05-24T00:42:12.217Z,18.60
2018-05-24T00:42:43.467Z,18.56
2018-05-24T00:43:14.693Z,18.55
2018-05-24T00:43:45.907Z,18.55
2018-05-24T00:44:17.159Z,18.55
2018-05-24T00:44:48.400Z,18.54
2018-05-24T00:45:19.683Z,18.56
2018-05-24T00:45:50.942Z,18.55
2018-05-24T00:46:22.153Z,18.50
2018-05-24T00:46:53.383Z,18.46
2018-05-24T00:47:24.596Z,18.41
2018-05-24T00:47:55.901Z,18.41
2018-05-24T00:48:27.113Z,18.35
2018-05-24T00:48:58.321Z,18.31
2018-05-24T00:49:29.534Z,18.35
2018-05-24T00:50:00.792Z,18.38
2018-05-24T00:50:32.094Z,18.42
2018-05-24T00:51:03.301Z,18.44
2018-05-24T00:51:34.513Z,18.46
2018-05-24T00:52:05.737Z,18.48
2018-05-24T00:52:36.949Z,18.48
2018-05-24T00:53:08.167Z,18.50
2018-05-24T00:53:39.393Z,18.49
2018-05-24T00:54:10.604Z,18.49
2018-05-24T00:54:41.952Z,18.49
2018-05-24T00:55:13.122Z,18.50
2018-05-24T00:55:44.345Z,18.50
2018-05-24T00:56:15.562Z,18.46
2018-05-24T00:56:46.777Z,18.42
2018-05-24T00:57:17.989Z,18.42
2018-05-24T00:57:49.209Z,18.42
2018-05-24T00:58:20.485Z,18.41
2018-05-24T00:58:51.690Z,18.41
2018-05-24T00:59:22.906Z,18.43
2018-05-24T00:59:54.133Z,18.43
2018-05-24T01:00:25.357Z,18.43
2018-05-24T01:00:56.566Z,18.41
2018-05-24T01:01:27.790Z,18.39
2018-05-24T01:01:59.006Z,18.37
2018-05-24T01:02:30.225Z,18.36
2018-05-24T01:03:01.443Z,18.36
2018-05-24T01:03:32.702Z,18.38
2018-05-24T01:04:03.926Z,18.39
2018-05-24T01:04:35.175Z,18.38
2018-05-24T01:05:06.383Z,18.39
2018-05-24T01:05:38.165Z,18.38
2018-05-24T01:06:09.425Z,18.35
2018-05-24T01:06:40.719Z,18.34
2018-05-24T01:07:11.908Z,18.38
2018-05-24T01:07:43.139Z,18.40
2018-05-24T01:08:14.352Z,18.41
2018-05-24T01:08:45.560Z,18.42
2018-05-24T01:09:16.777Z,18.45
2018-05-24T01:09:47.990Z,18.47
2018-05-24T01:10:19.248Z,18.50
2018-05-24T01:10:50.500Z,18.54
2018-05-24T01:11:21.694Z,18.56
2018-05-24T01:11:52.913Z,18.58
2018-05-24T01:12:24.121Z,18.58
2018-05-24T01:12:55.378Z,18.56
2018-05-24T01:13:26.603Z,18.54
2018-05-24T01:13:57.879Z,18.54
2018-05-24T01:14:29.099Z,18.51
2018-05-24T01:15:00.319Z,18.48
2018-05-24T01:15:31.593Z,18.44
2018-05-24T01:16:02.804Z,18.41
2018-05-24T01:16:34.013Z,18.37
2018-05-24T01:17:05.275Z,18.33
2018-05-24T01:17:36.489Z,18.30
2018-05-24T01:18:07.751Z,18.26
2018-05-24T01:18:38.978Z,18.21
2018-05-24T01:19:10.201Z,18.20
2018-05-24T01:19:41.456Z,18.18
2018-05-24T01:20:12.670Z,18.14
2018-05-24T01:20:43.949Z,18.13
2018-05-24T01:21:15.164Z,18.12
2018-05-24T01:21:46.378Z,18.08
2018-05-24T01:22:17.590Z,18.06
2018-05-24T01:22:48.831Z,18.02
2018-05-24T01:23:20.059Z,17.95
2018-05-24T01:23:51.296Z,17.91
2018-05-24T01:24:22.589Z,17.86
2018-05-24T01:24:53.871Z,17.81
2018-05-24T01:25:25.053Z,17.78
2018-05-24T01:25:56.299Z,17.75
2018-05-24T01:26:27.515Z,17.72
2018-05-24T01:26:58.735Z,17.70
2018-05-24T01:27:29.949Z,17.66
2018-05-24T01:28:01.230Z,17.66
2018-05-24T01:28:32.441Z,17.66
2018-05-24T01:29:03.670Z,17.67
2018-05-24T01:29:34.882Z,17.66
2018-05-24T01:30:06.083Z,17.63
2018-05-24T01:30:37.292Z,17.61
2018-05-24T01:31:08.527Z,17.58
2018-05-24T01:31:39.750Z,17.55
2018-05-24T01:32:10.965Z,17.54
2018-05-24T01:32:42.180Z,17.52
2018-05-24T01:33:13.440Z,17.52
2018-05-24T01:33:44.653Z,17.49
2018-05-24T01:34:15.882Z,17.47
2018-05-24T01:34:47.102Z,17.49
2018-05-24T01:35:18.366Z,17.50
2018-05-24T01:35:49.576Z,17.52
2018-05-24T01:36:20.787Z,17.51
2018-05-24T01:36:52.006Z,17.53
2018-05-24T01:37:23.233Z,17.51
2018-05-24T01:37:54.446Z,17.49
2018-05-24T01:38:25.638Z,17.50
2018-05-24T01:38:56.850Z,17.48
2018-05-24T01:39:28.064Z,17.46
2018-05-24T01:39:59.282Z,17.45
2018-05-24T01:40:30.541Z,17.45
2018-05-24T01:41:01.754Z,17.41
2018-05-24T01:41:32.965Z,17.38
2018-05-24T01:42:04.229Z,17.36
2018-05-24T01:42:35.437Z,17.36
2018-05-24T01:43:06.644Z,17.36
2018-05-24T01:43:37.868Z,17.36
2018-05-24T01:44:09.081Z,17.38
2018-05-24T01:44:40.305Z,17.38
2018-05-24T01:45:11.522Z,17.37
2018-05-24T01:45:42.769Z,17.35
2018-05-24T01:46:14.001Z,17.33
2018-05-24T01:46:45.216Z,17.31
2018-05-24T01:47:16.471Z,17.32
2018-05-24T01:47:47.681Z,17.29
2018-05-24T01:48:18.933Z,17.30
2018-05-24T01:48:50.173Z,17.33
2018-05-24T01:49:21.410Z,17.34
2018-05-24T01:49:52.641Z,17.35
2018-05-24T01:50:23.914Z,17.36
2018-05-24T01:50:55.136Z,17.39
2018-05-24T01:51:26.341Z,17.42
2018-05-24T01:51:57.554Z,17.44
2018-05-24T01:52:28.773Z,17.42
2018-05-24T01:52:59.971Z,17.40
2018-05-24T01:53:31.201Z,17.37
2018-05-24T01:54:02.423Z,17.35
2018-05-24T01:54:33.628Z,17.32
2018-05-24T01:55:04.841Z,17.29
2018-05-24T01:55:36.097Z,17.29
2018-05-24T01:56:07.415Z,17.28
2018-05-24T01:56:38.611Z,17.27
2018-05-24T01:57:09.869Z,17.26
2018-05-24T01:57:41.084Z,17.26
2018-05-24T01:58:12.308Z,17.25
2018-05-24T01:58:43.585Z,17.24
2018-05-24T01:59:14.805Z,17.27
2018-05-24T01:59:46.030Z,17.28
2018-05-24T02:00:17.302Z,17.29
2018-05-24T02:00:48.508Z,17.30
2018-05-24T02:01:19.732Z,17.31
2018-05-24T02:01:50.953Z,17.33
2018-05-24T02:02:22.191Z,17.34
2018-05-24T02:02:53.452Z,17.37
2018-05-24T02:03:24.665Z,17.40
2018-05-24T02:03:55.877Z,17.44
2018-05-24T02:04:27.097Z,17.48
2018-05-24T02:04:58.312Z,17.50
2018-05-24T02:05:29.529Z,17.52
2018-05-24T02:06:00.744Z,17.52
2018-05-24T02:06:31.956Z,17.53
2018-05-24T02:07:03.170Z,17.55
2018-05-24T02:07:34.442Z,17.56
2018-05-24T02:08:05.652Z,17.55
2018-05-24T02:08:36.879Z,17.56
2018-05-24T02:09:08.135Z,17.56
2018-05-24T02:09:39.436Z,17.57
2018-05-24T02:10:10.600Z,17.58
2018-05-24T02:10:41.809Z,17.58
2018-05-24T02:11:13.016Z,17.58
2018-05-24T02:11:44.257Z,17.58
2018-05-24T02:12:15.474Z,17.58
2018-05-24T02:12:46.684Z,17.56
2018-05-24T02:13:17.889Z,17.57
2018-05-24T02:13:49.105Z,17.58
2018-05-24T02:14:20.360Z,17.57
2018-05-24T02:14:51.576Z,17.57
2018-05-24T02:15:22.806Z,17.56
2018-05-24T02:15:54.009Z,17.55
2018-05-24T02:16:25.236Z,17.54
2018-05-24T02:16:56.434Z,17.53
2018-05-24T02:17:27.651Z,17.55
2018-05-24T02:17:58.879Z,17.55
2018-05-24T02:18:30.115Z,17.56
2018-05-24T02:19:01.339Z,17.59
2018-05-24T02:19:32.601Z,17.58
2018-05-24T02:20:03.818Z,17.59
2018-05-24T02:20:35.029Z,17.60
2018-05-24T02:21:06.244Z,17.63
2018-05-24T02:21:37.470Z,17.63
2018-05-24T02:22:08.677Z,17.62
2018-05-24T02:22:39.925Z,17.59
2018-05-24T02:23:11.133Z,17.57
2018-05-24T02:23:42.419Z,17.57
2018-05-24T02:24:13.703Z,17.57
2018-05-24T02:24:44.977Z,17.57
2018-05-24T02:25:16.185Z,17.57
2018-05-24T02:25:47.421Z,17.55
2018-05-24T02:26:18.712Z,17.57
2018-05-24T02:26:49.973Z,17.57
2018-05-24T02:27:21.196Z,17.58
2018-05-24T02:27:52.405Z,17.60
2018-05-24T02:28:23.613Z,17.58
2018-05-24T02:28:54.902Z,17.58
2018-05-24T02:29:26.202Z,17.57
2018-05-24T02:29:57.417Z,17.57
2018-05-24T02:30:28.647Z,17.59
2018-05-24T02:30:59.870Z,17.61
2018-05-24T02:31:31.082Z,17.63
2018-05-24T02:32:02.299Z,17.65
2018-05-24T02:32:33.525Z,17.65
2018-05-24T02:33:04.734Z,17.66
2018-05-24T02:33:36.008Z,17.66
2018-05-24T02:34:07.231Z,17.65
2018-05-24T02:34:38.463Z,17.65
2018-05-24T02:35:09.690Z,17.61
2018-05-24T02:35:40.916Z,17.65
2018-05-24T02:36:12.131Z,17.65
2018-05-24T02:36:43.338Z,17.67
2018-05-24T02:37:14.557Z,17.67
2018-05-24T02:37:45.826Z,17.67
2018-05-24T02:38:17.037Z,17.68
2018-05-24T02:38:48.351Z,17.69
2018-05-24T02:39:19.570Z,17.68
2018-05-24T02:39:50.786Z,17.70
2018-05-24T02:40:21.982Z,17.71
2018-05-24T02:40:53.194Z,17.71
2018-05-24T02:41:24.409Z,17.72
2018-05-24T02:41:55.625Z,17.70
2018-05-24T02:42:26.858Z,17.70
2018-05-24T02:42:58.182Z,17.72
2018-05-24T02:43:29.413Z,17.75
2018-05-24T02:44:00.702Z,17.78
2018-05-24T02:44:31.930Z,17.77
2018-05-24T02:45:03.205Z,17.77
2018-05-24T02:45:34.415Z,17.76
2018-05-24T02:46:05.707Z,17.72
2018-05-24T02:46:36.875Z,17.74
2018-05-24T02:47:08.084Z,17.51
2018-05-24T02:47:39.294Z,17.77
2018-05-24T02:48:10.528Z,17.79
2018-05-24T02:48:41.738Z,17.82
2018-05-24T02:49:12.946Z,17.82
2018-05-24T02:49:44.165Z,17.85
2018-05-24T02:50:15.398Z,17.87
2018-05-24T02:50:46.605Z,17.87
2018-05-24T02:51:17.818Z,17.88
2018-05-24T02:51:50.343Z,17.89
2018-05-24T02:52:21.553Z,17.88
2018-05-24T02:52:52.785Z,17.91
2018-05-24T02:53:24.022Z,17.94
2018-05-24T02:53:55.241Z,17.96
2018-05-24T02:54:26.462Z,18.00
2018-05-24T02:54:57.690Z,18.03
2018-05-24T02:55:28.956Z,18.07
2018-05-24T02:56:00.266Z,18.05
2018-05-24T02:56:31.481Z,18.06
2018-05-24T02:57:02.701Z,18.06
2018-05-24T02:57:33.929Z,18.07
2018-05-24T02:58:05.167Z,18.07
2018-05-24T02:58:36.428Z,18.08
2018-05-24T02:59:07.653Z,18.08
2018-05-24T02:59:38.889Z,18.06
2018-05-24T03:00:10.096Z,18.08
2018-05-24T03:00:41.354Z,18.08
2018-05-24T03:01:12.566Z,18.11
2018-05-24T03:01:43.797Z,18.12
2018-05-24T03:02:15.010Z,18.17
2018-05-24T03:02:46.246Z,18.18
2018-05-24T03:03:17.521Z,18.21
2018-05-24T03:03:48.734Z,18.22
2018-05-24T03:04:20.008Z,18.27
2018-05-24T03:04:51.222Z,18.30
2018-05-24T03:05:22.442Z,18.32
2018-05-24T03:05:53.662Z,18.32
2018-05-24T03:06:24.890Z,18.34
2018-05-24T03:06:56.138Z,18.31
2018-05-24T03:07:27.364Z,18.28
2018-05-24T03:07:58.581Z,18.25
2018-05-24T03:08:29.784Z,18.27
2018-05-24T03:09:01.000Z,18.27
2018-05-24T03:09:32.214Z,18.29
2018-05-24T03:10:03.437Z,18.32
2018-05-24T03:10:34.662Z,18.34
2018-05-24T03:11:05.904Z,18.37
2018-05-24T03:11:37.112Z,18.39
2018-05-24T03:12:08.364Z,18.43
2018-05-24T03:12:39.575Z,18.45
2018-05-24T03:13:10.789Z,18.43
2018-05-24T03:13:42.001Z,18.42
2018-05-24T03:14:13.273Z,18.41
2018-05-24T03:14:44.489Z,18.38
2018-05-24T03:15:15.705Z,18.36
2018-05-24T03:15:46.918Z,18.36
2018-05-24T03:16:18.169Z,18.34
2018-05-24T03:16:49.385Z,18.32
2018-05-24T03:17:20.634Z,18.30
2018-05-24T03:17:51.845Z,18.29
2018-05-24T03:18:23.061Z,18.29
2018-05-24T03:18:54.297Z,18.29
2018-05-24T03:19:25.554Z,18.30
2018-05-24T03:19:56.765Z,18.26
2018-05-24T03:20:27.987Z,18.28
2018-05-24T03:20:59.198Z,18.28
2018-05-24T03:21:30.409Z,18.27
2018-05-24T03:22:01.617Z,18.24
2018-05-24T03:22:32.824Z,18.25
2018-05-24T03:23:04.070Z,18.26
2018-05-24T03:23:35.285Z,18.28
2018-05-24T03:24:06.513Z,18.28
2018-05-24T03:24:37.740Z,18.26
2018-05-24T03:25:08.962Z,18.25
2018-05-24T03:25:40.185Z,18.26
2018-05-24T03:26:11.413Z,18.26
2018-05-24T03:26:42.635Z,18.28
2018-05-24T03:27:13.850Z,18.31
2018-05-24T03:27:45.093Z,18.33
2018-05-24T03:28:16.304Z,18.34
2018-05-24T03:28:48.261Z,18.34
2018-05-24T03:29:19.501Z,18.34
2018-05-24T03:29:50.710Z,18.33
2018-05-24T03:30:21.925Z,18.32
2018-05-24T03:30:53.183Z,18.31
2018-05-24T03:31:24.395Z,18.29
2018-05-24T03:31:56.225Z,18.28
2018-05-24T03:32:27.465Z,18.29
2018-05-24T03:32:58.679Z,18.28
2018-05-24T03:33:29.893Z,18.28
2018-05-24T03:34:01.145Z,18.29
2018-05-24T03:34:32.358Z,18.28
2018-05-24T03:35:03.768Z,18.31
2018-05-24T03:35:34.985Z,18.31
2018-05-24T03:36:06.207Z,18.33
2018-05-24T03:36:37.444Z,18.33
2018-05-24T03:37:08.664Z,18.34
2018-05-24T03:37:39.877Z,18.33
2018-05-24T03:38:11.091Z,18.30
2018-05-24T03:38:42.357Z,18.30
2018-05-24T03:39:13.621Z,18.34
2018-05-24T03:39:44.830Z,18.36
2018-05-24T03:40:16.051Z,18.38
2018-05-24T03:40:47.263Z,18.39
2018-05-24T03:41:18.499Z,18.39
2018-05-24T03:41:49.712Z,18.42
2018-05-24T03:42:21.324Z,18.42
2018-05-24T03:42:52.534Z,18.41
2018-05-24T03:43:23.744Z,18.43
2018-05-24T03:43:55.000Z,18.43
2018-05-24T03:44:26.268Z,18.41
2018-05-24T03:44:57.486Z,18.42
2018-05-24T03:45:28.701Z,18.42
2018-05-24T03:45:59.911Z,18.43
2018-05-24T03:46:31.179Z,18.44
2018-05-24T03:47:02.385Z,18.43
2018-05-24T03:47:33.605Z,18.42
2018-05-24T03:48:04.809Z,18.40
2018-05-24T03:48:36.041Z,18.41
2018-05-24T03:49:07.282Z,18.43
2018-05-24T03:49:38.496Z,18.44
2018-05-24T03:50:09.724Z,18.46
2018-05-24T03:50:40.947Z,18.49
2018-05-24T03:51:12.162Z,18.49
2018-05-24T03:51:43.417Z,18.49
2018-05-24T03:52:14.769Z,18.47
2018-05-24T03:52:45.914Z,18.48
2018-05-24T03:53:17.132Z,18.45
2018-05-24T03:53:49.113Z,18.48
2018-05-24T03:54:20.336Z,18.51
2018-05-24T03:54:51.589Z,18.53
2018-05-24T03:55:22.805Z,18.55
2018-05-24T03:55:54.016Z,18.56
2018-05-24T03:56:25.256Z,18.60
2018-05-24T03:56:56.513Z,18.62
2018-05-24T03:57:27.741Z,18.66
2018-05-24T03:57:58.950Z,18.66
2018-05-24T03:58:30.272Z,18.68
2018-05-24T03:59:01.485Z,18.64
2018-05-24T03:59:33.669Z,18.64
2018-05-24T04:00:04.900Z,18.69
2018-05-24T04:00:36.194Z,18.72
2018-05-24T04:01:07.980Z,18.77
2018-05-24T04:01:39.189Z,18.81
2018-05-24T04:02:10.449Z,18.85
2018-05-24T04:02:41.679Z,18.88
2018-05-24T04:03:12.900Z,18.90
2018-05-24T04:03:44.105Z,18.93
2018-05-24T04:04:15.377Z,18.95
2018-05-24T04:04:46.597Z,18.95
2018-05-24T04:05:17.804Z,18.95
2018-05-24T04:05:49.088Z,18.97
2018-05-24T04:06:20.257Z,18.97
2018-05-24T04:06:51.481Z,18.96
2018-05-24T04:07:22.734Z,18.96
2018-05-24T04:07:53.945Z,18.95
2018-05-24T04:08:25.186Z,18.95
2018-05-24T04:08:56.401Z,18.96
2018-05-24T04:09:58.674Z,18.94
2018-05-24T04:10:29.893Z,18.92
2018-05-24T04:11:01.161Z,18.90
2018-05-24T04:11:32.385Z,18.89
2018-05-24T04:12:03.656Z,18.88
2018-05-24T04:12:34.896Z,18.87
2018-05-24T04:13:06.125Z,18.87
2018-05-24T04:13:37.330Z,18.87
2018-05-24T04:14:08.554Z,18.89
2018-05-24T04:14:39.755Z,18.88
2018-05-24T04:15:10.961Z,18.91
2018-05-24T04:15:42.181Z,18.93
2018-05-24T04:16:13.392Z,18.94
2018-05-24T04:16:44.637Z,18.95
2018-05-24T04:17:15.855Z,18.97
2018-05-24T04:17:47.072Z,19.00
2018-05-24T04:18:18.290Z,19.02
2018-05-24T04:18:49.531Z,19.03
2018-05-24T04:19:20.741Z,19.02
2018-05-24T04:19:51.965Z,19.02
2018-05-24T04:20:23.167Z,19.01
2018-05-24T04:20:54.413Z,19.01
2018-05-24T04:21:25.686Z,18.97
2018-05-24T04:21:56.902Z,18.93
2018-05-24T04:22:28.123Z,18.85
2018-05-24T04:22:59.337Z,18.82
2018-05-24T04:23:30.555Z,18.78
2018-05-24T04:24:01.852Z,18.76
2018-05-24T04:24:33.069Z,18.75
2018-05-24T04:25:04.318Z,18.76
2018-05-24T04:25:35.538Z,18.80
2018-05-24T04:26:06.823Z,18.84
2018-05-24T04:26:38.061Z,18.89
2018-05-24T04:27:09.332Z,18.93
2018-05-24T04:27:40.557Z,18.98
2018-05-24T04:28:11.769Z,19.00
2018-05-24T04:28:43.002Z,18.96
2018-05-24T04:29:14.221Z,18.94
2018-05-24T04:29:45.438Z,18.92
2018-05-24T04:30:16.648Z,18.91
2018-05-24T04:30:48.732Z,18.92
2018-05-24T04:31:19.957Z,18.91
2018-05-24T04:31:51.169Z,18.89
2018-05-24T04:32:22.433Z,18.89
2018-05-24T04:32:53.646Z,18.87
2018-05-24T04:33:24.905Z,18.88
2018-05-24T04:33:56.117Z,18.90
2018-05-24T04:34:27.316Z,18.93
2018-05-24T04:34:58.535Z,18.95
2018-05-24T04:35:29.753Z,18.95
2018-05-24T04:36:01.012Z,18.98
2018-05-24T04:36:32.221Z,19.00
2018-05-24T04:37:03.433Z,19.01
2018-05-24T04:37:34.657Z,19.02
2018-05-24T04:38:05.869Z,19.06
2018-05-24T04:38:37.137Z,19.09
2018-05-24T04:39:08.353Z,19.13
2018-05-24T04:39:39.565Z,19.18
2018-05-24T04:40:10.777Z,19.22
2018-05-24T04:40:42.006Z,19.25
2018-05-24T04:41:13.302Z,19.28
2018-05-24T04:41:44.522Z,19.30
2018-05-24T04:42:15.732Z,19.30
2018-05-24T04:42:46.947Z,19.29
2018-05-24T04:43:18.175Z,19.32
2018-05-24T04:43:49.400Z,19.37
2018-05-24T04:44:20.616Z,19.40
2018-05-24T04:44:51.856Z,19.42
2018-05-24T04:45:23.152Z,19.47
2018-05-24T04:45:54.333Z,19.51
2018-05-24T04:46:25.597Z,19.53
2018-05-24T04:46:56.821Z,19.55
2018-05-24T04:47:28.036Z,19.59
2018-05-24T04:47:59.276Z,19.62
2018-05-24T04:48:30.489Z,19.64
2018-05-24T04:49:01.697Z,19.64
2018-05-24T04:49:32.911Z,19.63
2018-05-24T04:50:04.133Z,19.57
2018-05-24T04:50:35.341Z,19.57
2018-05-24T04:51:06.565Z,19.58
2018-05-24T04:51:37.812Z,19.60
2018-05-24T04:52:09.043Z,19.63
2018-05-24T04:52:40.299Z,19.65
2018-05-24T04:53:11.513Z,19.67
2018-05-24T04:53:42.799Z,19.69
2018-05-24T04:54:14.025Z,19.70
2018-05-24T04:54:45.238Z,19.75
2018-05-24T04:55:16.461Z,19.78
2018-05-24T04:55:47.727Z,19.80
2018-05-24T04:56:18.977Z,19.80
2018-05-24T04:56:50.221Z,19.84
2018-05-24T04:57:21.435Z,19.86
2018-05-24T04:57:52.654Z,19.84
2018-05-24T04:58:23.912Z,19.83
2018-05-24T04:58:55.159Z,19.82
2018-05-24T04:59:26.372Z,19.78
2018-05-24T04:59:57.586Z,19.78
2018-05-24T05:00:28.805Z,19.79
2018-05-24T05:01:00.027Z,19.79
2018-05-24T05:01:31.292Z,19.76
2018-05-24T05:02:02.821Z,19.71
2018-05-24T05:02:34.080Z,19.65
2018-05-24T05:03:05.333Z,19.61
2018-05-24T05:03:36.549Z,19.55
2018-05-24T05:04:07.769Z,19.50
2018-05-24T05:04:39.725Z,19.48
2018-05-24T05:05:10.933Z,19.46
2018-05-24T05:05:42.157Z,19.50
2018-05-24T05:06:13.410Z,19.51
2018-05-24T05:06:44.630Z,19.53
2018-05-24T05:07:15.841Z,19.54
2018-05-24T05:07:47.090Z,19.55
2018-05-24T05:08:18.301Z,19.61
2018-05-24T05:08:49.567Z,19.65
2018-05-24T05:09:20.790Z,19.67
2018-05-24T05:09:51.986Z,19.70
2018-05-24T05:10:23.205Z,19.75
2018-05-24T05:10:54.405Z,19.84
2018-05-24T05:11:25.653Z,19.90
2018-05-24T05:11:56.875Z,19.92
2018-05-24T05:12:28.101Z,19.98
2018-05-24T05:12:59.322Z,20.02
2018-05-24T05:13:30.547Z,20.06
2018-05-24T05:14:01.811Z,20.11
2018-05-24T05:14:33.131Z,20.15
2018-05-24T05:15:04.293Z,20.20
2018-05-24T05:15:35.506Z,20.24
2018-05-24T05:16:06.785Z,20.26
2018-05-24T05:16:38.813Z,20.29
2018-05-24T05:17:10.013Z,20.30
2018-05-24T05:17:41.229Z,20.29
2018-05-24T05:18:12.457Z,20.29
2018-05-24T05:18:43.696Z,20.29
2018-05-24T05:19:14.926Z,20.29
2018-05-24T05:19:47.162Z,20.31
2018-05-24T05:20:18.396Z,20.33
2018-05-24T05:20:49.624Z,20.34
2018-05-24T05:21:20.884Z,20.35
2018-05-24T05:21:52.106Z,20.38
2018-05-24T05:22:23.321Z,20.42
2018-05-24T05:22:54.553Z,20.46
2018-05-24T05:23:25.851Z,20.47
2018-05-24T05:23:57.022Z,20.46
2018-05-24T05:24:28.250Z,20.48
2018-05-24T05:24:59.468Z,20.48
2018-05-24T05:25:30.690Z,20.50
2018-05-24T05:26:01.917Z,20.49
2018-05-24T05:26:33.181Z,20.51
2018-05-24T05:27:04.405Z,20.53
2018-05-24T05:27:35.629Z,20.55
2018-05-24T05:28:06.874Z,20.53
2018-05-24T05:28:38.100Z,20.52
2018-05-24T05:29:09.319Z,20.47
2018-05-24T05:29:40.545Z,20.47
2018-05-24T05:30:11.764Z,20.44
2018-05-24T05:30:43.047Z,20.44
2018-05-24T05:31:14.239Z,20.46
2018-05-24T05:31:45.479Z,20.35
2018-05-24T05:32:16.696Z,20.34
2018-05-24T05:32:47.893Z,20.34
2018-05-24T05:33:19.851Z,20.34
2018-05-24T05:33:51.099Z,20.33
2018-05-24T05:34:22.366Z,20.34
2018-05-24T05:34:53.569Z,20.32
2018-05-24T05:35:24.773Z,20.36
2018-05-24T05:35:55.989Z,20.39
2018-05-24T05:36:27.225Z,20.42
2018-05-24T05:36:58.505Z,20.49
2018-05-24T05:37:29.725Z,20.55
2018-05-24T05:38:00.953Z,20.60
2018-05-24T05:38:32.195Z,20.64
2018-05-24T05:39:03.418Z,20.58
2018-05-24T05:39:34.629Z,20.59
2018-05-24T05:40:05.844Z,20.58
2018-05-24T05:40:37.098Z,20.60
2018-05-24T05:41:08.309Z,20.65
2018-05-24T05:41:39.565Z,20.68
2018-05-24T05:42:10.788Z,20.70
2018-05-24T05:42:42.002Z,20.77
2018-05-24T05:43:13.222Z,20.86
2018-05-24T05:43:44.602Z,20.95
2018-05-24T05:44:15.821Z,21.00
2018-05-24T05:44:47.090Z,20.93
2018-05-24T05:45:18.263Z,20.96
2018-05-24T05:45:49.526Z,21.04
2018-05-24T05:46:20.796Z,21.08
2018-05-24T05:46:52.017Z,21.17
2018-05-24T05:47:23.237Z,21.21
2018-05-24T05:47:54.453Z,21.24
2018-05-24T05:48:25.670Z,21.27
2018-05-24T05:48:56.975Z,21.29
2018-05-24T05:49:28.178Z,21.30
2018-05-24T05:49:59.373Z,21.30
2018-05-24T05:50:30.593Z,21.31
2018-05-24T05:51:01.820Z,21.29
2018-05-24T05:51:33.109Z,21.25
2018-05-24T05:52:04.383Z,21.23
2018-05-24T05:52:35.601Z,21.26
2018-05-24T05:53:06.825Z,21.28
2018-05-24T05:53:38.044Z,21.33
2018-05-24T05:54:09.294Z,21.36
2018-05-24T05:54:40.521Z,21.39
2018-05-24T05:55:11.741Z,21.42
2018-05-24T05:55:42.958Z,21.47
2018-05-24T05:56:14.172Z,21.51
2018-05-24T05:56:45.386Z,21.51
2018-05-24T05:57:16.665Z,21.50
2018-05-24T05:57:47.896Z,21.50
2018-05-24T05:58:19.116Z,21.52
2018-05-24T05:58:50.329Z,21.57
2018-05-24T05:59:21.550Z,21.59
2018-05-24T05:59:52.785Z,21.61
2018-05-24T06:00:24.013Z,21.64
2018-05-24T06:00:55.222Z,21.66
2018-05-24T06:01:26.445Z,21.73
2018-05-24T06:01:57.704Z,21.74
2018-05-24T06:02:28.981Z,21.78
2018-05-24T06:03:00.248Z,21.79
2018-05-24T06:03:31.457Z,21.80
2018-05-24T06:04:02.673Z,21.80
2018-05-24T06:04:33.880Z,21.84
2018-05-24T06:05:05.089Z,21.84
2018-05-24T06:05:36.314Z,21.86
2018-05-24T06:06:07.531Z,21.87
2018-05-24T06:06:38.744Z,21.79
2018-05-24T06:07:09.941Z,21.75
2018-05-24T06:07:41.218Z,21.66
2018-05-24T06:08:12.441Z,21.56
2018-05-24T06:08:43.670Z,21.54
2018-05-24T06:09:14.869Z,21.58
2018-05-24T06:09:46.080Z,21.65
2018-05-24T06:10:17.348Z,21.74
2018-05-24T06:10:48.588Z,21.79
2018-05-24T06:11:19.825Z,21.84
2018-05-24T06:11:51.162Z,21.92
2018-05-24T06:12:22.379Z,21.94
2018-05-24T06:12:53.590Z,22.00
2018-05-24T06:13:24.783Z,22.04
2018-05-24T06:13:56.106Z,22.08
2018-05-24T06:14:27.334Z,22.07
2018-05-24T06:14:58.577Z,22.10
2018-05-24T06:15:29.849Z,22.04
2018-05-24T06:16:01.057Z,22.08
2018-05-24T06:16:32.290Z,22.07
2018-05-24T06:17:03.550Z,22.09
2018-05-24T06:17:34.773Z,22.11
2018-05-24T06:18:06.040Z,22.11
2018-05-24T06:18:37.254Z,22.14
2018-05-24T06:19:08.466Z,22.19
2018-05-24T06:19:39.654Z,22.22
2018-05-24T06:20:10.842Z,22.23
2018-05-24T06:20:42.046Z,22.23
2018-05-24T06:21:13.268Z,22.22
2018-05-24T06:21:44.515Z,22.25
2018-05-24T06:22:15.745Z,22.30
2018-05-24T06:22:46.993Z,22.29
2018-05-24T06:23:18.206Z,22.32
2018-05-24T06:23:49.417Z,22.33
2018-05-24T06:24:20.661Z,22.34
2018-05-24T06:24:51.870Z,22.32
2018-05-24T06:25:23.076Z,22.34
2018-05-24T06:25:54.289Z,22.32
2018-05-24T06:26:25.515Z,22.27
2018-05-24T06:26:56.729Z,22.25
2018-05-24T06:27:27.962Z,22.25
2018-05-24T06:27:59.226Z,22.15
2018-05-24T06:28:30.453Z,22.14
2018-05-24T06:29:01.710Z,22.14
2018-05-24T06:29:32.934Z,22.10
2018-05-24T06:30:04.138Z,22.06
2018-05-24T06:30:35.397Z,22.08
2018-05-24T06:31:06.598Z,22.14
2018-05-24T06:31:37.805Z,22.16
2018-05-24T06:32:09.017Z,22.16
2018-05-24T06:32:40.288Z,22.10
2018-05-24T06:33:11.520Z,22.09
2018-05-24T06:33:42.727Z,22.12
2018-05-24T06:34:13.947Z,22.16
2018-05-24T06:34:45.160Z,22.18
2018-05-24T06:35:16.374Z,22.23
2018-05-24T06:35:47.577Z,22.26
2018-05-24T06:36:18.788Z,22.31
2018-05-24T06:36:50.017Z,22.34
2018-05-24T06:37:21.261Z,22.35
2018-05-24T06:37:52.532Z,22.33
2018-05-24T06:38:23.750Z,22.33
2018-05-24T06:38:54.968Z,22.35
2018-05-24T06:39:26.176Z,22.39
2018-05-24T06:39:57.399Z,22.35
2018-05-24T06:40:28.629Z,22.36
2018-05-24T06:40:59.848Z,22.31
2018-05-24T06:41:31.052Z,22.23
2018-05-24T06:42:02.260Z,22.18
2018-05-24T06:42:33.473Z,22.17